createdAt,value
2018-06-09T00:00:57.807Z,95.70
2018-06-09T00:03:31.803Z,95.70
2018-06-09T00:06:05.882Z,95.60
2018-06-09T00:08:39.705Z,95.60
2018-06-09T00:11:13.695Z,95.40
2018-06-09T00:13:47.760Z,95.30
2018-06-09T00:16:28.588Z,95.40
2018-06-09T00:19:02.645Z,95.60
2018-06-09T00:21:36.398Z,95.60
2018-06-09T00:24:10.149Z,96.00
2018-06-09T00:29:18.255Z,95.60
2018-06-09T00:31:52.342Z,95.70
2018-06-09T00:34:26.226Z,95.50
2018-06-09T00:37:00.199Z,95.80
2018-06-09T00:39:34.763Z,95.70
2018-06-09T00:42:08.791Z,95.70
2018-06-09T00:44:43.145Z,95.70
2018-06-09T00:47:17.231Z,95.80
2018-06-09T00:49:51.131Z,95.80
2018-06-09T00:52:25.255Z,95.80
2018-06-09T00:54:59.080Z,95.80
2018-06-09T00:57:32.934Z,95.80
2018-06-09T01:00:06.973Z,95.70
2018-06-09T01:02:41.055Z,96.00
2018-06-09T01:05:15.279Z,95.90
2018-06-09T01:07:49.165Z,96.10
2018-06-09T01:10:23.135Z,96.20
2018-06-09T01:12:57.420Z,96.30
2018-06-09T01:15:31.229Z,96.30
2018-06-09T01:18:05.235Z,96.50
2018-06-09T01:20:39.255Z,96.60
2018-06-09T01:23:13.253Z,96.60
2018-06-09T01:25:47.525Z,96.70
2018-06-09T01:28:21.605Z,96.80
2018-06-09T01:30:55.567Z,96.80
2018-06-09T01:33:29.733Z,96.90
2018-06-09T01:36:03.560Z,96.80
2018-06-09T01:38:37.468Z,97.00
2018-06-09T01:41:11.385Z,97.00
2018-06-09T01:43:45.455Z,97.00
2018-06-09T01:46:19.484Z,97.00
2018-06-09T01:48:53.351Z,97.10
2018-06-09T01:51:27.393Z,97.10
2018-06-09T01:54:01.253Z,97.00
2018-06-09T01:59:08.941Z,96.90
2018-06-09T02:01:43.022Z,96.90
2018-06-09T02:04:16.971Z,96.90
2018-06-09T02:09:24.742Z,97.00
2018-06-09T02:11:58.636Z,97.00
2018-06-09T02:14:32.744Z,97.10
2018-06-09T02:17:06.522Z,97.10
2018-06-09T02:19:40.579Z,97.20
2018-06-09T02:22:14.315Z,97.20
2018-06-09T02:24:48.477Z,97.30
2018-06-09T02:27:22.639Z,97.30
2018-06-09T02:29:56.527Z,97.40
2018-06-09T02:32:30.354Z,97.60
2018-06-09T02:35:04.642Z,97.40
2018-06-09T02:37:38.602Z,97.40
2018-06-09T02:42:46.275Z,97.30
2018-06-09T02:45:20.372Z,97.30
2018-06-09T02:47:54.403Z,97.30
2018-06-09T02:50:28.307Z,97.20
2018-06-09T02:53:02.243Z,97.10
2018-06-09T02:55:36.741Z,97.00
2018-06-09T02:58:11.982Z,96.80
2018-06-09T03:00:46.133Z,96.80
2018-06-09T03:03:20.123Z,96.80
2018-06-09T03:05:54.383Z,96.90
2018-06-09T03:08:28.538Z,96.90
2018-06-09T03:13:36.153Z,96.80
2018-06-09T03:16:10.543Z,96.80
2018-06-09T03:18:44.320Z,96.70
2018-06-09T03:21:18.079Z,96.60
2018-06-09T03:23:52.243Z,96.60
2018-06-09T03:26:26.134Z,96.50
2018-06-09T03:28:59.969Z,96.40
2018-06-09T03:31:33.872Z,96.40
2018-06-09T03:34:07.808Z,96.60
2018-06-09T03:36:41.777Z,96.60
2018-06-09T03:39:15.723Z,96.60
2018-06-09T03:41:49.907Z,96.60
2018-06-09T03:44:23.879Z,96.60
2018-06-09T03:46:58.200Z,96.60
2018-06-09T03:49:32.094Z,96.50
2018-06-09T03:52:06.344Z,96.50
2018-06-09T03:54:40.439Z,96.50
2018-06-09T03:57:14.648Z,96.50
2018-06-09T03:59:48.689Z,96.40
2018-06-09T04:02:22.618Z,96.30
2018-06-09T04:04:56.997Z,96.30
2018-06-09T04:07:31.094Z,96.20
2018-06-09T04:10:05.024Z,96.20
2018-06-09T04:12:39.093Z,96.10
2018-06-09T04:15:13.243Z,96.00
2018-06-09T04:17:47.143Z,96.10
2018-06-09T04:20:21.427Z,96.10
2018-06-09T04:22:55.348Z,96.00
2018-06-09T04:25:29.747Z,95.90
2018-06-09T04:28:03.666Z,95.90
2018-06-09T04:30:37.699Z,95.90
2018-06-09T04:33:12.797Z,95.70
2018-06-09T04:35:46.673Z,95.50
2018-06-09T04:38:20.705Z,95.50
2018-06-09T04:40:54.420Z,95.40
2018-06-09T04:43:28.386Z,95.40
2018-06-09T04:46:02.446Z,95.50
2018-06-09T04:48:36.235Z,95.40
2018-06-09T04:51:10.414Z,95.20
2018-06-09T04:53:44.489Z,95.20
2018-06-09T04:56:19.476Z,95.10
2018-06-09T04:58:53.560Z,95.00
2018-06-09T05:01:27.638Z,94.90
2018-06-09T05:06:36.736Z,94.40
2018-06-09T05:09:11.483Z,94.60
2018-06-09T05:11:45.667Z,94.70
2018-06-09T05:14:19.649Z,94.60
2018-06-09T05:16:53.493Z,94.20
2018-06-09T05:19:27.578Z,94.30
2018-06-09T05:22:02.279Z,94.10
2018-06-09T05:24:36.504Z,94.40
2018-06-09T05:27:10.495Z,94.20
2018-06-09T05:29:44.455Z,94.10
2018-06-09T05:32:18.501Z,94.00
2018-06-09T05:34:53.179Z,94.00
2018-06-09T05:37:27.085Z,94.10
2018-06-09T05:40:00.945Z,94.10
2018-06-09T05:42:34.934Z,94.10
2018-06-09T05:45:09.025Z,93.70
2018-06-09T05:47:43.140Z,93.50
2018-06-09T05:50:16.935Z,93.70
2018-06-09T05:52:51.044Z,93.90
2018-06-09T05:55:25.267Z,93.80
2018-06-09T05:57:59.159Z,93.80
2018-06-09T06:00:33.158Z,94.20
2018-06-09T06:03:07.691Z,93.70
2018-06-09T06:05:41.622Z,93.10
2018-06-09T06:08:15.838Z,93.10
2018-06-09T06:10:49.722Z,92.90
2018-06-09T06:13:24.000Z,92.50
2018-06-09T06:15:57.839Z,92.60
2018-06-09T06:18:32.211Z,92.70
2018-06-09T06:21:06.335Z,92.40
2018-06-09T06:23:40.384Z,91.90
2018-06-09T06:26:14.520Z,91.60
2018-06-09T06:28:48.901Z,91.10
2018-06-09T06:31:22.856Z,90.70
2018-06-09T06:33:56.899Z,90.70
2018-06-09T06:36:30.866Z,90.90
2018-06-09T06:39:08.159Z,91.20
2018-06-09T06:41:42.082Z,91.30
2018-06-09T06:44:16.128Z,91.10
2018-06-09T06:46:50.755Z,90.60
2018-06-09T06:49:24.874Z,90.70
2018-06-09T06:51:59.046Z,90.70
2018-06-09T06:57:07.195Z,90.20
2018-06-09T06:59:41.430Z,89.50
2018-06-09T07:02:15.590Z,89.70
2018-06-09T07:04:49.605Z,89.60
2018-06-09T07:07:23.818Z,89.50
2018-06-09T07:09:58.119Z,89.00
2018-06-09T07:12:32.740Z,88.50
2018-06-09T07:15:07.115Z,88.50
2018-06-09T07:17:41.051Z,88.20
2018-06-09T07:20:15.307Z,88.60
2018-06-09T07:22:49.691Z,88.80
2018-06-09T07:25:23.744Z,88.10
2018-06-09T07:27:57.684Z,88.10
2018-06-09T07:30:32.072Z,87.90
2018-06-09T07:33:06.198Z,87.80
2018-06-09T07:35:40.507Z,87.80
2018-06-09T07:40:48.540Z,88.10
2018-06-09T07:43:22.544Z,87.30
2018-06-09T07:45:57.255Z,86.40
2018-06-09T07:48:31.745Z,86.70
2018-06-09T07:51:06.111Z,87.10
2018-06-09T07:53:40.299Z,86.20
2018-06-09T08:01:22.605Z,86.50
2018-06-09T08:03:56.716Z,86.30
2018-06-09T08:06:30.857Z,86.30
2018-06-09T08:09:05.989Z,86.80
2018-06-09T08:11:39.918Z,87.40
2018-06-09T08:16:48.197Z,85.90
2018-06-09T08:19:22.393Z,86.10
2018-06-09T08:21:56.611Z,85.30
2018-06-09T08:24:31.088Z,85.00
2018-06-09T08:27:05.525Z,84.80
2018-06-09T08:29:39.765Z,85.00
2018-06-09T08:32:13.856Z,85.70
2018-06-09T08:34:48.166Z,85.10
2018-06-09T08:37:22.176Z,84.90
2018-06-09T08:39:56.311Z,84.40
2018-06-09T08:42:31.373Z,84.80
2018-06-09T08:45:05.431Z,85.00
2018-06-09T08:47:39.552Z,84.80
2018-06-09T08:50:13.955Z,84.30
2018-06-09T08:52:48.121Z,84.80
2018-06-09T08:55:22.140Z,84.60
2018-06-09T08:57:56.057Z,83.10
2018-06-09T09:00:30.419Z,82.80
2018-06-09T09:03:04.659Z,82.70
2018-06-09T09:05:39.106Z,82.30
2018-06-09T09:08:13.315Z,81.70
2018-06-09T09:10:47.771Z,81.30
2018-06-09T09:13:22.494Z,80.70
2018-06-09T09:15:56.656Z,79.90
2018-06-09T09:18:31.052Z,78.90
2018-06-09T09:21:05.597Z,78.80
2018-06-09T09:23:39.490Z,78.50
2018-06-09T09:26:13.528Z,78.60
2018-06-09T09:28:47.631Z,78.50
2018-06-09T09:33:55.635Z,76.20
2018-06-09T09:36:29.968Z,75.90
2018-06-09T09:39:07.159Z,76.70
2018-06-09T09:41:41.695Z,76.80
2018-06-09T09:44:16.281Z,74.20
2018-06-09T09:49:24.210Z,72.80
2018-06-09T09:51:58.294Z,72.80
2018-06-09T09:54:32.532Z,72.10
2018-06-09T09:57:06.310Z,72.00
2018-06-09T09:59:40.461Z,72.40
2018-06-09T10:02:14.671Z,72.70
2018-06-09T10:04:48.778Z,72.60
2018-06-09T10:07:22.897Z,71.70
2018-06-09T10:09:56.844Z,72.40
2018-06-09T10:12:35.441Z,72.40
2018-06-09T10:15:09.515Z,70.90
2018-06-09T10:17:43.616Z,69.70
2018-06-09T10:20:17.759Z,69.20
2018-06-09T10:22:51.797Z,68.90
2018-06-09T10:27:59.864Z,67.50
2018-06-09T10:30:33.874Z,66.80
2018-06-09T10:33:11.042Z,67.30
2018-06-09T10:35:45.098Z,67.10
2018-06-09T10:38:19.515Z,67.00
2018-06-09T10:40:53.742Z,66.50
2018-06-09T10:43:28.048Z,67.40
2018-06-09T10:46:01.980Z,66.90
2018-06-09T10:48:36.935Z,65.90
2018-06-09T10:51:11.289Z,66.30
2018-06-09T10:53:45.163Z,65.80
2018-06-09T10:56:19.250Z,66.10
2018-06-09T10:58:53.559Z,64.30
2018-06-09T11:04:01.682Z,64.30
2018-06-09T11:06:36.010Z,64.50
2018-06-09T11:09:10.120Z,63.70
2018-06-09T11:11:44.452Z,63.00
2018-06-09T11:14:18.537Z,63.10
2018-06-09T11:16:52.654Z,64.20
2018-06-09T11:19:26.801Z,63.80
2018-06-09T11:22:01.056Z,64.20
2018-06-09T11:24:35.322Z,62.30
2018-06-09T11:27:09.868Z,62.20
2018-06-09T11:29:44.228Z,62.70
2018-06-09T11:32:18.176Z,61.50
2018-06-09T11:34:53.395Z,61.60
2018-06-09T11:37:27.920Z,61.00
2018-06-09T11:40:01.831Z,59.90
2018-06-09T11:42:36.257Z,58.70
2018-06-09T11:45:10.477Z,58.60
2018-06-09T11:47:44.990Z,59.00
2018-06-09T11:50:19.317Z,58.00
2018-06-09T11:52:53.777Z,58.80
2018-06-09T11:55:27.772Z,58.70
2018-06-09T11:58:01.997Z,58.90
2018-06-09T12:00:35.896Z,57.90
2018-06-09T12:03:10.429Z,57.80
2018-06-09T12:05:44.486Z,59.00
2018-06-09T12:08:18.561Z,57.00
2018-06-09T12:10:52.625Z,57.60
2018-06-09T12:13:26.876Z,57.70
2018-06-09T12:16:01.086Z,57.00
2018-06-09T12:18:34.986Z,56.00
2018-06-09T12:21:09.144Z,56.90
2018-06-09T12:23:43.679Z,56.20
2018-06-09T12:26:17.772Z,55.70
2018-06-09T12:28:52.327Z,56.00
2018-06-09T12:31:26.327Z,55.40
2018-06-09T12:34:00.503Z,55.20
2018-06-09T12:36:34.480Z,54.70
2018-06-09T12:39:08.615Z,53.00
2018-06-09T12:41:42.876Z,53.30
2018-06-09T12:44:17.531Z,52.60
2018-06-09T12:46:51.950Z,52.50
2018-06-09T12:49:26.141Z,52.10
2018-06-09T12:52:00.048Z,52.90
2018-06-09T12:54:34.216Z,51.60
2018-06-09T12:57:08.533Z,51.90
2018-06-09T12:59:42.775Z,48.70
2018-06-09T13:02:17.741Z,46.90
2018-06-09T13:04:52.077Z,45.30
2018-06-09T13:07:25.994Z,44.00
2018-06-09T13:10:00.430Z,42.00
2018-06-09T13:12:34.349Z,41.10
2018-06-09T13:15:08.409Z,40.90
2018-06-09T13:17:42.507Z,39.90
2018-06-09T13:20:16.583Z,38.70
2018-06-09T13:22:50.550Z,37.90
2018-06-09T13:25:25.526Z,38.10
2018-06-09T13:27:59.516Z,38.00
2018-06-09T13:30:33.710Z,37.90
2018-06-09T13:33:08.065Z,38.80
2018-06-09T13:35:42.800Z,37.90
2018-06-09T13:38:16.991Z,38.10
2018-06-09T13:40:52.854Z,39.70
2018-06-09T13:43:27.085Z,40.50
2018-06-09T13:46:01.236Z,41.60
2018-06-09T13:48:35.302Z,41.00
2018-06-09T13:51:09.515Z,40.50
2018-06-09T13:53:43.556Z,40.90
2018-06-09T13:56:18.465Z,40.80
2018-06-09T13:58:53.358Z,40.70
2018-06-09T14:01:28.306Z,41.40
2018-06-09T14:04:02.488Z,42.30
2018-06-09T14:06:36.600Z,43.00
2018-06-09T14:09:10.986Z,41.40
2018-06-09T14:11:45.054Z,41.60
2018-06-09T14:14:19.047Z,40.60
2018-06-09T14:16:53.172Z,41.10
2018-06-09T14:19:27.404Z,41.60
2018-06-09T14:22:01.143Z,40.50
2018-06-09T14:24:35.110Z,41.20
2018-06-09T14:27:09.555Z,40.40
2018-06-09T14:29:43.625Z,40.30
2018-06-09T14:32:17.761Z,39.40
2018-06-09T14:34:51.625Z,40.40
2018-06-09T14:37:25.620Z,41.80
2018-06-09T14:39:59.962Z,42.60
2018-06-09T14:42:34.549Z,44.30
2018-06-09T14:45:08.497Z,45.20
2018-06-09T14:47:42.669Z,46.60
2018-06-09T14:50:17.122Z,47.60
2018-06-09T14:52:52.095Z,47.50
2018-06-09T14:55:26.101Z,48.40
2018-06-09T14:58:00.165Z,50.00
2018-06-09T15:00:34.510Z,51.10
2018-06-09T15:03:09.148Z,53.00
2018-06-09T15:05:43.115Z,56.70
2018-06-09T15:08:17.224Z,59.30
2018-06-09T15:10:51.203Z,60.70
2018-06-09T15:13:25.524Z,63.30
2018-06-09T15:15:59.499Z,64.20
2018-06-09T15:18:33.906Z,65.30
2018-06-09T15:21:07.960Z,65.00
2018-06-09T15:23:48.511Z,67.30
2018-06-09T15:26:22.833Z,67.60
2018-06-09T15:28:57.932Z,65.80
2018-06-09T15:31:32.188Z,65.90
2018-06-09T15:34:06.275Z,66.80
2018-06-09T15:36:40.436Z,67.60
2018-06-09T15:39:14.641Z,70.20
2018-06-09T15:41:49.001Z,72.50
2018-06-09T15:44:23.510Z,75.10
2018-06-09T15:46:57.421Z,73.60
2018-06-09T15:49:31.766Z,74.30
2018-06-09T15:52:05.812Z,73.50
2018-06-09T15:54:40.728Z,74.30
2018-06-09T15:57:15.056Z,73.70
2018-06-09T15:59:49.397Z,73.60
2018-06-09T16:02:23.388Z,74.10
2018-06-09T16:04:57.451Z,73.30
2018-06-09T16:07:31.495Z,74.00
2018-06-09T16:10:05.850Z,73.80
2018-06-09T16:12:39.934Z,73.80
2018-06-09T16:15:14.233Z,75.50
2018-06-09T16:17:48.380Z,74.30
2018-06-09T16:20:22.783Z,74.80
2018-06-09T16:22:57.753Z,74.00
2018-06-09T16:25:31.873Z,73.60
2018-06-09T16:28:05.896Z,73.00
2018-06-09T16:30:40.024Z,72.80
2018-06-09T16:33:20.802Z,71.80
2018-06-09T16:35:55.245Z,72.20
2018-06-09T16:38:29.606Z,73.00
2018-06-09T16:41:04.012Z,72.90
2018-06-09T16:43:38.310Z,73.60
2018-06-09T16:46:12.596Z,73.40
2018-06-09T16:48:46.632Z,73.40
2018-06-09T16:51:20.705Z,73.40
2018-06-09T16:53:54.452Z,73.90
2018-06-09T16:56:28.377Z,74.70
2018-06-09T16:59:02.529Z,74.60
2018-06-09T17:01:36.917Z,74.80
2018-06-09T17:04:12.069Z,74.50
2018-06-09T17:06:46.370Z,74.70
2018-06-09T17:09:20.587Z,75.40
2018-06-09T17:11:55.126Z,75.60
2018-06-09T17:14:29.291Z,75.20
2018-06-09T17:17:03.637Z,75.10
2018-06-09T17:19:37.876Z,75.50
2018-06-09T17:22:12.032Z,75.50
2018-06-09T17:24:46.156Z,75.80
2018-06-09T17:27:20.768Z,75.80
2018-06-09T17:29:55.076Z,75.80
2018-06-09T17:32:30.086Z,75.70
2018-06-09T17:35:04.322Z,75.60
2018-06-09T17:37:38.381Z,75.60
2018-06-09T17:40:12.311Z,75.60
2018-06-09T17:42:46.589Z,76.50
2018-06-09T17:45:21.051Z,77.50
2018-06-09T17:53:05.191Z,78.40
2018-06-09T17:55:39.242Z,79.30
2018-06-09T17:58:13.300Z,79.60
2018-06-09T18:00:48.212Z,80.90
2018-06-09T18:03:22.166Z,81.00
2018-06-09T18:08:30.337Z,82.60
2018-06-09T18:11:04.491Z,83.30
2018-06-09T18:13:38.958Z,83.60
2018-06-09T18:16:13.496Z,84.00
2018-06-09T18:18:47.773Z,85.10
2018-06-09T18:21:21.784Z,85.70
2018-06-09T18:23:56.233Z,86.10
2018-06-09T18:26:30.398Z,86.60
2018-06-09T18:29:04.629Z,87.70
2018-06-09T18:31:38.930Z,88.30
2018-06-09T18:34:13.608Z,88.60
2018-06-09T18:36:47.912Z,89.00
2018-06-09T18:39:22.171Z,89.50
2018-06-09T18:44:30.778Z,90.10
2018-06-09T18:47:05.198Z,90.50
2018-06-09T18:49:40.388Z,90.50
2018-06-09T18:52:18.773Z,90.70
2018-06-09T18:54:53.237Z,91.30
2018-06-09T18:57:27.423Z,91.70
2018-06-09T19:00:02.268Z,92.40
2018-06-09T19:02:36.353Z,92.50
2018-06-09T19:05:10.514Z,92.60
2018-06-09T19:07:44.869Z,92.60
2018-06-09T19:10:19.181Z,92.70
2018-06-09T19:12:53.347Z,92.70
2018-06-09T19:15:27.789Z,92.60
2018-06-09T19:18:02.262Z,92.40
2018-06-09T19:20:36.476Z,92.50
2018-06-09T19:23:10.983Z,92.70
2018-06-09T19:25:49.172Z,92.60
2018-06-09T19:28:23.338Z,92.60
2018-06-09T19:30:57.672Z,92.70
2018-06-09T19:33:31.798Z,92.70
2018-06-09T19:36:06.286Z,92.60
2018-06-09T19:38:40.511Z,92.30
2018-06-09T19:43:48.868Z,92.30
2018-06-09T19:46:23.535Z,92.20
2018-06-09T19:48:58.837Z,92.20
2018-06-09T19:51:33.533Z,92.40
2018-06-09T19:54:07.943Z,92.80
2018-06-09T19:56:42.624Z,93.10
2018-06-09T19:59:17.146Z,93.10
2018-06-09T20:01:51.093Z,93.30
2018-06-09T20:04:25.466Z,93.60
2018-06-09T20:06:59.572Z,94.10
2018-06-09T20:09:34.072Z,94.10
2018-06-09T20:12:09.067Z,94.30
2018-06-09T20:14:43.872Z,94.60
2018-06-09T20:17:18.251Z,94.70
2018-06-09T20:19:52.562Z,94.70
2018-06-09T20:22:26.808Z,94.70
2018-06-09T20:25:01.176Z,94.70
2018-06-09T20:27:35.853Z,94.60
2018-06-09T20:30:10.322Z,94.50
2018-06-09T20:32:45.220Z,94.60
2018-06-09T20:35:20.072Z,94.50
2018-06-09T20:37:54.643Z,94.30
2018-06-09T20:40:29.543Z,94.50
2018-06-09T20:43:03.913Z,94.40
2018-06-09T20:45:38.141Z,94.30
2018-06-09T20:48:12.428Z,94.20
2018-06-09T20:50:47.645Z,94.30
2018-06-09T20:53:22.131Z,94.40
2018-06-09T20:55:56.222Z,94.40
2018-06-09T20:58:35.832Z,94.50
2018-06-09T21:03:43.881Z,95.10
2018-06-09T21:06:18.331Z,95.90
2018-06-09T21:08:52.359Z,96.00
2018-06-09T21:11:26.492Z,96.30
2018-06-09T21:14:00.581Z,96.60
2018-06-09T21:16:37.763Z,96.50
2018-06-09T21:19:11.807Z,96.20
2018-06-09T21:21:45.842Z,96.60
2018-06-09T21:24:20.902Z,96.50
2018-06-09T21:27:00.504Z,96.60
2018-06-09T21:29:39.824Z,96.50
2018-06-09T21:32:53.288Z,96.40
2018-06-09T21:35:45.138Z,96.10
2018-06-09T21:38:27.327Z,96.30
2018-06-09T21:41:02.381Z,96.50
2018-06-09T21:43:41.916Z,97.10
2018-06-09T21:46:21.383Z,97.30
2018-06-09T21:48:55.461Z,97.40
2018-06-09T21:51:29.678Z,97.20
2018-06-09T21:54:04.331Z,97.40
2018-06-09T21:56:38.354Z,97.60
2018-06-09T21:59:13.072Z,97.80
2018-06-09T22:01:47.198Z,97.90
2018-06-09T22:04:21.778Z,97.60
2018-06-09T22:06:55.978Z,97.60
2018-06-09T22:09:30.878Z,97.70
2018-06-09T22:12:05.682Z,97.70
2018-06-09T22:14:40.084Z,97.80
2018-06-09T22:17:14.587Z,97.90
2018-06-09T22:19:49.196Z,97.90
2018-06-09T22:22:23.823Z,97.70
2018-06-09T22:24:57.994Z,97.70
2018-06-09T22:27:32.267Z,97.90
2018-06-09T22:30:06.973Z,97.80
2018-06-09T22:32:41.001Z,97.90
2018-06-09T22:35:15.262Z,98.30
2018-06-09T22:37:49.177Z,98.40
2018-06-09T22:40:23.322Z,98.50
2018-06-09T22:42:57.246Z,98.30
2018-06-09T22:45:31.862Z,97.90
2018-06-09T22:48:06.611Z,97.90
2018-06-09T22:50:41.115Z,98.00
2018-06-09T22:53:15.127Z,98.10
2018-06-09T22:55:49.062Z,98.20
2018-06-09T22:58:23.151Z,98.30
2018-06-09T23:00:57.147Z,98.50
2018-06-09T23:06:05.187Z,98.70
2018-06-09T23:08:39.611Z,98.80
2018-06-09T23:11:13.618Z,98.70
2018-06-09T23:13:47.858Z,98.70
2018-06-09T23:16:21.636Z,98.60
2018-06-09T23:18:55.563Z,98.80
2018-06-09T23:21:29.663Z,98.80
2018-06-09T23:24:04.197Z,98.80
2018-06-09T23:26:38.264Z,98.90
2018-06-09T23:29:12.419Z,99.00
2018-06-09T23:31:46.584Z,99.00
2018-06-09T23:34:20.398Z,99.00
2018-06-09T23:36:54.467Z,99.10
2018-06-09T23:39:28.211Z,99.30
2018-06-09T23:42:02.784Z,99.30
2018-06-09T23:44:36.797Z,99.30
2018-06-09T23:47:10.952Z,99.40
2018-06-09T23:49:45.330Z,99.50
2018-06-09T23:52:19.596Z,99.40
2018-06-09T23:54:53.516Z,99.40
2018-06-09T23:57:27.552Z,99.40
